sensor_id;sensor_type;location;lat;lon;timestamp;pressure;altitude;pressure_sealevel;temperature;humidity
57847;BME280;43675;50.030;21.952;2022-09-12T00:03:41;98253.31;;;13.03;72.22
57847;BME280;43675;50.030;21.952;2022-09-12T00:06:09;98248.97;;;13.02;72.28
57847;BME280;43675;50.030;21.952;2022-09-12T00:08:35;98246.34;;;13.05;72.12
57847;BME280;43675;50.030;21.952;2022-09-12T00:11:03;98251.73;;;13.05;71.88
57847;BME280;43675;50.030;21.952;2022-09-12T00:13:29;98249.27;;;13.03;71.70
57847;BME280;43675;50.030;21.952;2022-09-12T00:15:55;98250.05;;;13.01;71.67
57847;BME280;43675;50.030;21.952;2022-09-12T00:18:20;98260.83;;;13.01;71.55
57847;BME280;43675;50.030;21.952;2022-09-12T00:20:46;98241.91;;;12.99;71.51
57847;BME280;43675;50.030;21.952;2022-09-12T00:23:12;98261.05;;;13.00;71.34
57847;BME280;43675;50.030;21.952;2022-09-12T00:25:43;98254.21;;;12.95;71.29
57847;BME280;43675;50.030;21.952;2022-09-12T00:28:10;98256.34;;;12.93;71.25
57847;BME280;43675;50.030;21.952;2022-09-12T00:30:46;98256.57;;;12.91;71.24
57847;BME280;43675;50.030;21.952;2022-09-12T00:33:09;98256.00;;;12.89;71.13
57847;BME280;43675;50.030;21.952;2022-09-12T00:35:42;98248.75;;;12.90;71.12
57847;BME280;43675;50.030;21.952;2022-09-12T00:38:09;98246.58;;;12.89;71.05
57847;BME280;43675;50.030;21.952;2022-09-12T00:40:42;98249.46;;;12.85;71.09
57847;BME280;43675;50.030;21.952;2022-09-12T00:46:10;98249.91;;;12.82;71.04
57847;BME280;43675;50.030;21.952;2022-09-12T00:48:46;98245.20;;;12.75;71.09
57847;BME280;43675;50.030;21.952;2022-09-12T00:51:12;98247.86;;;12.72;70.99
57847;BME280;43675;50.030;21.952;2022-09-12T00:53:40;98245.91;;;12.70;70.89
57847;BME280;43675;50.030;21.952;2022-09-12T00:56:07;98240.26;;;12.69;70.63
57847;BME280;43675;50.030;21.952;2022-09-12T00:58:36;98237.23;;;12.66;70.50
57847;BME280;43675;50.030;21.952;2022-09-12T01:01:02;98247.70;;;12.65;70.31
57847;BME280;43675;50.030;21.952;2022-09-12T01:03:28;98238.98;;;12.60;70.14
57847;BME280;43675;50.030;21.952;2022-09-12T01:06:17;98234.65;;;12.59;70.07
57847;BME280;43675;50.030;21.952;2022-09-12T01:08:42;98232.48;;;12.59;70.07
57847;BME280;43675;50.030;21.952;2022-09-12T01:11:10;98241.82;;;12.54;70.28
57847;BME280;43675;50.030;21.952;2022-09-12T01:13:36;98254.45;;;12.53;70.42
57847;BME280;43675;50.030;21.952;2022-09-12T01:16:04;98239.35;;;12.52;70.64
57847;BME280;43675;50.030;21.952;2022-09-12T01:21:56;98238.48;;;12.49;70.99
57847;BME280;43675;50.030;21.952;2022-09-12T01:24:24;98239.20;;;12.45;71.18
57847;BME280;43675;50.030;21.952;2022-09-12T01:35:31;98247.16;;;12.28;71.70
57847;BME280;43675;50.030;21.952;2022-09-12T01:41:17;98247.00;;;12.20;71.62
57847;BME280;43675;50.030;21.952;2022-09-12T01:46:30;98235.33;;;12.15;71.44
57847;BME280;43675;50.030;21.952;2022-09-12T01:49:06;98236.89;;;12.13;71.35
57847;BME280;43675;50.030;21.952;2022-09-12T01:51:41;98229.64;;;12.14;71.17
57847;BME280;43675;50.030;21.952;2022-09-12T01:54:11;98246.27;;;12.11;71.02
57847;BME280;43675;50.030;21.952;2022-09-12T01:56:39;98234.60;;;12.08;71.02
57847;BME280;43675;50.030;21.952;2022-09-12T02:01:45;98245.61;;;12.06;70.82
57847;BME280;43675;50.030;21.952;2022-09-12T02:06:56;98239.94;;;12.05;70.80
57847;BME280;43675;50.030;21.952;2022-09-12T02:09:28;98241.50;;;12.04;70.75
57847;BME280;43675;50.030;21.952;2022-09-12T02:11:57;98244.36;;;12.00;70.79
57847;BME280;43675;50.030;21.952;2022-09-12T02:14:30;98243.02;;;12.00;70.81
57847;BME280;43675;50.030;21.952;2022-09-12T02:22:42;98245.09;;;11.95;70.94
57847;BME280;43675;50.030;21.952;2022-09-12T02:25:09;98246.83;;;11.90;71.03
57847;BME280;43675;50.030;21.952;2022-09-12T02:27:48;98248.17;;;11.90;70.95
57847;BME280;43675;50.030;21.952;2022-09-12T02:30:17;98250.34;;;11.90;70.94
57847;BME280;43675;50.030;21.952;2022-09-12T02:33:00;98246.26;;;11.88;70.96
57847;BME280;43675;50.030;21.952;2022-09-12T02:35:37;98245.19;;;11.89;70.88
57847;BME280;43675;50.030;21.952;2022-09-12T02:38:19;98245.95;;;11.87;70.92
57847;BME280;43675;50.030;21.952;2022-09-12T02:40:53;98243.79;;;11.86;70.86
57847;BME280;43675;50.030;21.952;2022-09-12T02:43:26;98243.97;;;11.82;70.92
57847;BME280;43675;50.030;21.952;2022-09-12T02:45:52;98242.31;;;11.81;70.90
57847;BME280;43675;50.030;21.952;2022-09-12T02:48:21;98245.48;;;11.78;70.92
57847;BME280;43675;50.030;21.952;2022-09-12T02:50:47;98247.86;;;11.77;70.94
57847;BME280;43675;50.030;21.952;2022-09-12T02:53:21;98258.87;;;11.75;70.94
57847;BME280;43675;50.030;21.952;2022-09-12T02:55:48;98248.77;;;11.71;70.96
57847;BME280;43675;50.030;21.952;2022-09-12T02:58:17;98253.14;;;11.72;70.97
57847;BME280;43675;50.030;21.952;2022-09-12T03:00:50;98249.63;;;11.71;71.00
57847;BME280;43675;50.030;21.952;2022-09-12T03:03:26;98251.46;;;11.71;71.01
57847;BME280;43675;50.030;21.952;2022-09-12T03:06:02;98256.54;;;11.70;71.02
57847;BME280;43675;50.030;21.952;2022-09-12T03:08:49;98249.98;;;11.66;71.07
57847;BME280;43675;50.030;21.952;2022-09-12T03:11:37;98258.00;;;11.63;71.18
57847;BME280;43675;50.030;21.952;2022-09-12T03:14:21;98257.13;;;11.60;71.19
57847;BME280;43675;50.030;21.952;2022-09-12T03:19:51;98262.28;;;11.53;71.28
57847;BME280;43675;50.030;21.952;2022-09-12T03:22:51;98258.41;;;11.49;71.36
57847;BME280;43675;50.030;21.952;2022-09-12T03:25:19;98266.83;;;11.41;71.50
57847;BME280;43675;50.030;21.952;2022-09-12T03:27:51;98261.48;;;11.31;71.67
57847;BME280;43675;50.030;21.952;2022-09-12T03:30:14;98271.63;;;11.29;71.77
57847;BME280;43675;50.030;21.952;2022-09-12T03:32:45;98273.52;;;11.29;71.84
57847;BME280;43675;50.030;21.952;2022-09-12T03:35:13;98267.75;;;11.25;71.92
57847;BME280;43675;50.030;21.952;2022-09-12T03:37:39;98267.55;;;11.18;72.08
57847;BME280;43675;50.030;21.952;2022-09-12T03:40:07;98274.67;;;11.12;72.24
57847;BME280;43675;50.030;21.952;2022-09-12T03:42:40;98277.20;;;11.07;72.39
57847;BME280;43675;50.030;21.952;2022-09-12T03:45:14;98270.08;;;11.01;72.49
57847;BME280;43675;50.030;21.952;2022-09-12T03:47:40;98280.88;;;10.95;72.64
57847;BME280;43675;50.030;21.952;2022-09-12T03:50:07;98279.63;;;10.88;72.84
57847;BME280;43675;50.030;21.952;2022-09-12T03:52:34;98287.32;;;10.84;73.04
57847;BME280;43675;50.030;21.952;2022-09-12T03:54:59;98276.80;;;10.83;73.19
57847;BME280;43675;50.030;21.952;2022-09-12T03:57:25;98285.61;;;10.81;73.33
57847;BME280;43675;50.030;21.952;2022-09-12T03:59:51;98286.71;;;10.82;73.40
57847;BME280;43675;50.030;21.952;2022-09-12T04:02:24;98286.19;;;10.83;73.48
57847;BME280;43675;50.030;21.952;2022-09-12T04:04:50;98290.46;;;10.81;73.54
57847;BME280;43675;50.030;21.952;2022-09-12T04:07:16;98287.78;;;10.81;73.56
57847;BME280;43675;50.030;21.952;2022-09-12T04:09:42;98293.66;;;10.81;73.59
57847;BME280;43675;50.030;21.952;2022-09-12T04:12:07;98293.36;;;10.80;73.61
57847;BME280;43675;50.030;21.952;2022-09-12T04:14:33;98296.25;;;10.78;73.72
57847;BME280;43675;50.030;21.952;2022-09-12T04:17:00;98305.95;;;10.79;73.78
57847;BME280;43675;50.030;21.952;2022-09-12T04:19:26;98292.33;;;10.81;73.80
57847;BME280;43675;50.030;21.952;2022-09-12T04:22:05;98295.89;;;10.84;73.87
57847;BME280;43675;50.030;21.952;2022-09-12T04:24:31;98309.16;;;10.88;73.86
57847;BME280;43675;50.030;21.952;2022-09-12T04:26:57;98298.58;;;10.93;73.81
57847;BME280;43675;50.030;21.952;2022-09-12T04:29:23;98297.36;;;10.98;73.72
57847;BME280;43675;50.030;21.952;2022-09-12T04:31:49;98301.23;;;11.02;73.59
57847;BME280;43675;50.030;21.952;2022-09-12T04:34:15;98310.84;;;11.10;73.49
57847;BME280;43675;50.030;21.952;2022-09-12T04:36:41;98300.24;;;11.15;73.41
57847;BME280;43675;50.030;21.952;2022-09-12T04:39:07;98293.16;;;11.20;73.28
57847;BME280;43675;50.030;21.952;2022-09-12T04:41:35;98295.16;;;11.25;73.14
57847;BME280;43675;50.030;21.952;2022-09-12T04:44:04;98317.53;;;11.28;73.04
57847;BME280;43675;50.030;21.952;2022-09-12T04:46:40;98315.95;;;11.29;72.98
57847;BME280;43675;50.030;21.952;2022-09-12T04:49:07;98317.37;;;11.32;72.95
57847;BME280;43675;50.030;21.952;2022-09-12T04:51:35;98318.84;;;11.37;72.90
57847;BME280;43675;50.030;21.952;2022-09-12T04:54:04;98310.92;;;11.42;72.81
57847;BME280;43675;50.030;21.952;2022-09-12T04:56:39;98326.94;;;11.49;72.70
57847;BME280;43675;50.030;21.952;2022-09-12T04:59:06;98326.04;;;11.55;72.60
57847;BME280;43675;50.030;21.952;2022-09-12T05:01:32;98314.09;;;11.60;72.47
57847;BME280;43675;50.030;21.952;2022-09-12T05:03:58;98309.89;;;11.64;72.38
57847;BME280;43675;50.030;21.952;2022-09-12T05:06:30;98312.98;;;11.70;72.24
57847;BME280;43675;50.030;21.952;2022-09-12T05:08:57;98320.92;;;11.74;72.16
57847;BME280;43675;50.030;21.952;2022-09-12T05:11:26;98319.05;;;11.74;72.07
57847;BME280;43675;50.030;21.952;2022-09-12T05:13:53;98328.25;;;11.76;72.06
57847;BME280;43675;50.030;21.952;2022-09-12T05:16:19;98326.19;;;11.80;71.95
57847;BME280;43675;50.030;21.952;2022-09-12T05:18:46;98333.73;;;11.81;71.92
57847;BME280;43675;50.030;21.952;2022-09-12T05:21:15;98339.71;;;11.83;71.89
57847;BME280;43675;50.030;21.952;2022-09-12T05:23:41;98331.92;;;11.84;71.86
57847;BME280;43675;50.030;21.952;2022-09-12T05:26:09;98341.16;;;11.88;71.75
57847;BME280;43675;50.030;21.952;2022-09-12T05:28:37;98342.50;;;11.88;71.67
57847;BME280;43675;50.030;21.952;2022-09-12T05:31:05;98342.50;;;11.88;71.68
57847;BME280;43675;50.030;21.952;2022-09-12T05:33:32;98339.73;;;11.95;71.71
57847;BME280;43675;50.030;21.952;2022-09-12T05:35:59;98338.05;;;12.03;71.49
57847;BME280;43675;50.030;21.952;2022-09-12T05:38:25;98352.90;;;12.05;71.29
57847;BME280;43675;50.030;21.952;2022-09-12T05:40:51;98357.75;;;12.06;71.18
57847;BME280;43675;50.030;21.952;2022-09-12T05:43:17;98355.59;;;12.05;71.10
57847;BME280;43675;50.030;21.952;2022-09-12T05:45:49;98346.48;;;12.06;71.09
57847;BME280;43675;50.030;21.952;2022-09-12T05:48:15;98363.79;;;12.10;71.06
57847;BME280;43675;50.030;21.952;2022-09-12T05:50:41;98356.90;;;12.14;70.99
57847;BME280;43675;50.030;21.952;2022-09-12T05:53:07;98347.96;;;12.23;70.85
57847;BME280;43675;50.030;21.952;2022-09-12T05:55:39;98350.02;;;12.30;70.59
57847;BME280;43675;50.030;21.952;2022-09-12T05:58:05;98342.03;;;12.35;70.48
57847;BME280;43675;50.030;21.952;2022-09-12T06:00:31;98337.60;;;12.41;70.31
57847;BME280;43675;50.030;21.952;2022-09-12T06:02:56;98342.46;;;12.41;70.24
57847;BME280;43675;50.030;21.952;2022-09-12T06:05:22;98333.95;;;12.47;70.20
57847;BME280;43675;50.030;21.952;2022-09-12T06:07:50;98334.34;;;12.50;70.08
57847;BME280;43675;50.030;21.952;2022-09-12T06:10:16;98335.20;;;12.53;69.78
57847;BME280;43675;50.030;21.952;2022-09-12T06:12:41;98338.98;;;12.55;69.69
57847;BME280;43675;50.030;21.952;2022-09-12T06:15:09;98356.39;;;12.61;69.54
57847;BME280;43675;50.030;21.952;2022-09-12T06:17:35;98349.66;;;12.61;69.35
57847;BME280;43675;50.030;21.952;2022-09-12T06:20:03;98346.66;;;12.60;69.25
57847;BME280;43675;50.030;21.952;2022-09-12T06:22:28;98357.09;;;12.57;69.18
57847;BME280;43675;50.030;21.952;2022-09-12T06:24:54;98344.92;;;12.54;69.17
57847;BME280;43675;50.030;21.952;2022-09-12T06:27:20;98350.53;;;12.53;69.27
57847;BME280;43675;50.030;21.952;2022-09-12T06:29:46;98355.44;;;12.56;69.12
57847;BME280;43675;50.030;21.952;2022-09-12T06:32:11;98350.31;;;12.54;69.07
57847;BME280;43675;50.030;21.952;2022-09-12T06:34:37;98357.61;;;12.56;69.07
57847;BME280;43675;50.030;21.952;2022-09-12T06:37:03;98355.39;;;12.65;69.04
57847;BME280;43675;50.030;21.952;2022-09-12T06:39:29;98349.52;;;12.68;68.90
57847;BME280;43675;50.030;21.952;2022-09-12T06:41:55;98351.65;;;12.66;68.74
57847;BME280;43675;50.030;21.952;2022-09-12T06:44:21;98358.08;;;12.65;68.74
57847;BME280;43675;50.030;21.952;2022-09-12T06:46:54;98358.30;;;12.63;68.66
57847;BME280;43675;50.030;21.952;2022-09-12T06:49:26;98368.59;;;12.66;68.76
57847;BME280;43675;50.030;21.952;2022-09-12T06:51:52;98367.02;;;12.68;68.65
57847;BME280;43675;50.030;21.952;2022-09-12T06:54:25;98370.41;;;12.63;68.55
57847;BME280;43675;50.030;21.952;2022-09-12T06:56:51;98370.50;;;12.66;68.57
57847;BME280;43675;50.030;21.952;2022-09-12T06:59:16;98374.28;;;12.67;68.47
57847;BME280;43675;50.030;21.952;2022-09-12T07:01:42;98378.96;;;12.72;68.54
57847;BME280;43675;50.030;21.952;2022-09-12T07:04:15;98375.91;;;12.80;68.46
57847;BME280;43675;50.030;21.952;2022-09-12T07:06:41;98392.64;;;12.82;68.37
57847;BME280;43675;50.030;21.952;2022-09-12T07:09:14;98388.42;;;12.86;68.18
57847;BME280;43675;50.030;21.952;2022-09-12T07:11:38;98387.16;;;12.89;68.12
57847;BME280;43675;50.030;21.952;2022-09-12T07:14:06;98391.58;;;12.95;68.11
57847;BME280;43675;50.030;21.952;2022-09-12T07:16:39;98391.48;;;13.01;67.97
57847;BME280;43675;50.030;21.952;2022-09-12T07:19:06;98388.34;;;13.07;67.79
57847;BME280;43675;50.030;21.952;2022-09-12T07:21:32;98394.86;;;13.08;67.51
57847;BME280;43675;50.030;21.952;2022-09-12T07:23:58;98384.83;;;13.06;67.64
57847;BME280;43675;50.030;21.952;2022-09-12T07:26:26;98392.01;;;13.12;67.44
57847;BME280;43675;50.030;21.952;2022-09-12T07:28:53;98398.48;;;13.14;67.36
57847;BME280;43675;50.030;21.952;2022-09-12T07:31:22;98396.95;;;13.18;67.39
57847;BME280;43675;50.030;21.952;2022-09-12T07:33:49;98393.63;;;13.25;67.04
57847;BME280;43675;50.030;21.952;2022-09-12T07:36:17;98393.78;;;13.33;66.87
57847;BME280;43675;50.030;21.952;2022-09-12T07:38:44;98404.11;;;13.38;66.79
57847;BME280;43675;50.030;21.952;2022-09-12T07:41:17;98389.59;;;13.39;66.70
57847;BME280;43675;50.030;21.952;2022-09-12T07:43:40;98392.06;;;13.41;66.54
57847;BME280;43675;50.030;21.952;2022-09-12T07:46:07;98408.42;;;13.37;66.55
57847;BME280;43675;50.030;21.952;2022-09-12T07:48:39;98407.59;;;13.36;66.47
57847;BME280;43675;50.030;21.952;2022-09-12T07:51:08;98411.98;;;13.40;66.64
57847;BME280;43675;50.030;21.952;2022-09-12T07:53:40;98407.94;;;13.54;66.51
57847;BME280;43675;50.030;21.952;2022-09-12T07:56:04;98410.39;;;13.69;66.17
57847;BME280;43675;50.030;21.952;2022-09-12T07:58:32;98427.84;;;13.79;65.61
57847;BME280;43675;50.030;21.952;2022-09-12T08:03:36;98420.57;;;13.79;65.44
57847;BME280;43675;50.030;21.952;2022-09-12T08:06:08;98422.97;;;13.78;65.28
57847;BME280;43675;50.030;21.952;2022-09-12T08:08:35;98414.06;;;13.78;65.46
57847;BME280;43675;50.030;21.952;2022-09-12T08:11:04;98421.87;;;13.91;65.38
57847;BME280;43675;50.030;21.952;2022-09-12T08:13:31;98425.59;;;14.04;65.00
57847;BME280;43675;50.030;21.952;2022-09-12T08:16:02;98416.94;;;14.02;64.85
57847;BME280;43675;50.030;21.952;2022-09-12T08:18:35;98416.84;;;13.97;64.98
57847;BME280;43675;50.030;21.952;2022-09-12T08:21:04;98418.19;;;13.97;64.82
57847;BME280;43675;50.030;21.952;2022-09-12T08:23:32;98423.41;;;13.87;64.95
57847;BME280;43675;50.030;21.952;2022-09-12T08:25:59;98422.55;;;13.84;65.13
57847;BME280;43675;50.030;21.952;2022-09-12T08:28:26;98420.64;;;13.84;65.16
57847;BME280;43675;50.030;21.952;2022-09-12T08:30:53;98431.54;;;13.89;65.09
57847;BME280;43675;50.030;21.952;2022-09-12T08:33:19;98421.67;;;13.95;64.92
57847;BME280;43675;50.030;21.952;2022-09-12T08:35:46;98421.52;;;14.01;65.03
57847;BME280;43675;50.030;21.952;2022-09-12T08:38:11;98420.53;;;14.21;64.83
57847;BME280;43675;50.030;21.952;2022-09-12T08:40:51;98430.49;;;14.35;64.31
57847;BME280;43675;50.030;21.952;2022-09-12T08:45:58;98427.19;;;14.64;63.76
57847;BME280;43675;50.030;21.952;2022-09-12T08:48:24;98422.44;;;14.71;63.21
57847;BME280;43675;50.030;21.952;2022-09-12T08:50:58;98425.66;;;14.71;62.72
57847;BME280;43675;50.030;21.952;2022-09-12T08:53:26;98423.05;;;14.59;62.89
57847;BME280;43675;50.030;21.952;2022-09-12T08:55:58;98427.90;;;14.57;62.91
57847;BME280;43675;50.030;21.952;2022-09-12T08:58:26;98436.00;;;14.57;62.80
57847;BME280;43675;50.030;21.952;2022-09-12T09:01:06;98435.70;;;14.56;62.76
57847;BME280;43675;50.030;21.952;2022-09-12T09:03:55;98436.20;;;14.53;62.75
57847;BME280;43675;50.030;21.952;2022-09-12T09:06:50;98442.92;;;14.50;62.81
57847;BME280;43675;50.030;21.952;2022-09-12T09:14:42;98431.66;;;14.73;62.57
57847;BME280;43675;50.030;21.952;2022-09-12T09:17:31;98439.76;;;14.73;62.32
57847;BME280;43675;50.030;21.952;2022-09-12T09:20:10;98438.09;;;14.69;62.41
57847;BME280;43675;50.030;21.952;2022-09-12T09:22:43;98442.78;;;14.76;62.44
57847;BME280;43675;50.030;21.952;2022-09-12T09:25:24;98449.94;;;14.85;62.19
57847;BME280;43675;50.030;21.952;2022-09-12T09:28:03;98442.75;;;14.74;62.31
57847;BME280;43675;50.030;21.952;2022-09-12T09:30:29;98451.94;;;14.58;62.58
57847;BME280;43675;50.030;21.952;2022-09-12T09:33:00;98449.95;;;14.35;63.23
57847;BME280;43675;50.030;21.952;2022-09-12T09:35:45;98451.17;;;14.30;63.76
57847;BME280;43675;50.030;21.952;2022-09-12T09:43:24;98453.47;;;13.79;65.05
57847;BME280;43675;50.030;21.952;2022-09-12T09:45:51;98462.88;;;13.64;65.39
57847;BME280;43675;50.030;21.952;2022-09-12T09:48:32;98460.99;;;13.51;65.89
57847;BME280;43675;50.030;21.952;2022-09-12T09:51:06;98455.74;;;13.44;66.42
57847;BME280;43675;50.030;21.952;2022-09-12T09:56:06;98465.77;;;13.35;67.05
57847;BME280;43675;50.030;21.952;2022-09-12T09:58:33;98457.82;;;13.28;67.78
57847;BME280;43675;50.030;21.952;2022-09-12T10:01:04;98460.60;;;13.33;67.92
57847;BME280;43675;50.030;21.952;2022-09-12T10:03:33;98461.20;;;13.35;67.96
57847;BME280;43675;50.030;21.952;2022-09-12T10:06:05;98459.03;;;13.35;68.03
57847;BME280;43675;50.030;21.952;2022-09-12T10:08:31;98461.20;;;13.35;68.25
57847;BME280;43675;50.030;21.952;2022-09-12T10:13:37;98466.53;;;13.44;68.27
57847;BME280;43675;50.030;21.952;2022-09-12T10:18:45;98464.82;;;13.66;67.90
57847;BME280;43675;50.030;21.952;2022-09-12T10:21:33;98472.91;;;13.66;67.91
57847;BME280;43675;50.030;21.952;2022-09-12T10:24:21;98464.67;;;13.73;67.63
57847;BME280;43675;50.030;21.952;2022-09-12T10:26:52;98477.52;;;13.68;67.71
57847;BME280;43675;50.030;21.952;2022-09-12T10:31:52;98481.63;;;13.71;68.07
57847;BME280;43675;50.030;21.952;2022-09-12T10:34:25;98482.34;;;13.81;68.10
57847;BME280;43675;50.030;21.952;2022-09-12T10:36:53;98499.17;;;13.85;67.94
57847;BME280;43675;50.030;21.952;2022-09-12T10:39:20;98493.66;;;13.80;68.07
57847;BME280;43675;50.030;21.952;2022-09-12T10:41:46;98494.93;;;13.75;68.28
57847;BME280;43675;50.030;21.952;2022-09-12T10:44:29;98493.14;;;13.81;68.53
57847;BME280;43675;50.030;21.952;2022-09-12T10:46:56;98496.81;;;13.89;68.36
57847;BME280;43675;50.030;21.952;2022-09-12T10:49:28;98501.34;;;13.86;68.09
57847;BME280;43675;50.030;21.952;2022-09-12T10:52:16;98501.27;;;13.69;68.38
57847;BME280;43675;50.030;21.952;2022-09-12T10:54:42;98505.34;;;13.57;68.82
57847;BME280;43675;50.030;21.952;2022-09-12T10:57:41;98501.95;;;13.50;69.07
57847;BME280;43675;50.030;21.952;2022-09-12T11:00:15;98510.27;;;13.49;69.30
57847;BME280;43675;50.030;21.952;2022-09-12T11:02:49;98504.15;;;13.39;69.45
57847;BME280;43675;50.030;21.952;2022-09-12T11:05:34;98511.24;;;13.31;69.80
57847;BME280;43675;50.030;21.952;2022-09-12T11:08:23;98506.60;;;13.29;70.08
57847;BME280;43675;50.030;21.952;2022-09-12T11:22:02;98514.20;;;13.55;70.42
57847;BME280;43675;50.030;21.952;2022-09-12T11:27:27;98507.30;;;13.73;69.90
57847;BME280;43675;50.030;21.952;2022-09-12T11:29:56;98514.37;;;13.77;69.93
57847;BME280;43675;50.030;21.952;2022-09-12T11:35:24;98520.69;;;13.57;70.31
57847;BME280;43675;50.030;21.952;2022-09-12T11:56:32;98542.80;;;12.66;73.22
57847;BME280;43675;50.030;21.952;2022-09-12T12:01:41;98541.87;;;12.51;73.87
57847;BME280;43675;50.030;21.952;2022-09-12T12:04:17;98539.06;;;12.46;74.15
57847;BME280;43675;50.030;21.952;2022-09-12T12:07:02;98542.80;;;12.45;74.46
57847;BME280;43675;50.030;21.952;2022-09-12T12:09:28;98544.97;;;12.46;74.68
57847;BME280;43675;50.030;21.952;2022-09-12T12:11:55;98550.81;;;12.43;74.87
57847;BME280;43675;50.030;21.952;2022-09-12T12:17:03;98549.12;;;12.51;75.06
57847;BME280;43675;50.030;21.952;2022-09-12T12:19:34;98551.75;;;12.48;75.08
57847;BME280;43675;50.030;21.952;2022-09-12T12:22:19;98553.41;;;12.49;75.13
57847;BME280;43675;50.030;21.952;2022-09-12T12:25:05;98555.27;;;12.49;75.20
57847;BME280;43675;50.030;21.952;2022-09-12T12:27:52;98549.89;;;12.49;75.32
57847;BME280;43675;50.030;21.952;2022-09-12T12:33:01;98559.61;;;12.50;75.37
57847;BME280;43675;50.030;21.952;2022-09-12T12:38:03;98557.19;;;12.51;75.30
57847;BME280;43675;50.030;21.952;2022-09-12T12:40:30;98557.74;;;12.50;75.16
57847;BME280;43675;50.030;21.952;2022-09-12T12:43:03;98558.63;;;12.53;75.11
57847;BME280;43675;50.030;21.952;2022-09-12T12:48:06;98563.84;;;12.57;74.90
57847;BME280;43675;50.030;21.952;2022-09-12T12:50:29;98558.77;;;12.58;74.95
57847;BME280;43675;50.030;21.952;2022-09-12T12:55:55;98564.26;;;12.63;74.83
57847;BME280;43675;50.030;21.952;2022-09-12T12:58:33;98562.55;;;12.60;74.91
57847;BME280;43675;50.030;21.952;2022-09-12T13:03:36;98568.66;;;12.67;74.86
57847;BME280;43675;50.030;21.952;2022-09-12T13:06:08;98565.52;;;12.70;74.79
57847;BME280;43675;50.030;21.952;2022-09-12T13:08:41;98570.44;;;12.73;74.72
57847;BME280;43675;50.030;21.952;2022-09-12T13:11:10;98562.28;;;12.70;74.64
57847;BME280;43675;50.030;21.952;2022-09-12T13:13:39;98571.13;;;12.68;74.66
57847;BME280;43675;50.030;21.952;2022-09-12T13:16:08;98575.47;;;12.69;74.70
57847;BME280;43675;50.030;21.952;2022-09-12T13:18:45;98567.97;;;12.71;74.70
57847;BME280;43675;50.030;21.952;2022-09-12T13:21:18;98570.75;;;12.74;74.62
57847;BME280;43675;50.030;21.952;2022-09-12T13:23:57;98568.32;;;12.75;74.68
57847;BME280;43675;50.030;21.952;2022-09-12T13:26:21;98578.83;;;12.74;74.72
57847;BME280;43675;50.030;21.952;2022-09-12T13:28:41;98580.17;;;12.74;74.76
57847;BME280;43675;50.030;21.952;2022-09-12T13:31:24;98573.60;;;12.70;74.80
57847;BME280;43675;50.030;21.952;2022-09-12T13:33:53;98578.08;;;12.67;74.98
57847;BME280;43675;50.030;21.952;2022-09-12T13:39:28;98576.59;;;12.50;75.31
57847;BME280;43675;50.030;21.952;2022-09-12T13:45:02;98584.23;;;12.35;75.91
57847;BME280;43675;50.030;21.952;2022-09-12T13:47:34;98582.09;;;12.25;76.17
57847;BME280;43675;50.030;21.952;2022-09-12T13:50:03;98582.09;;;12.25;76.37
57847;BME280;43675;50.030;21.952;2022-09-12T13:52:32;98582.24;;;12.30;76.42
57847;BME280;43675;50.030;21.952;2022-09-12T13:55:00;98583.70;;;12.36;76.40
57847;BME280;43675;50.030;21.952;2022-09-12T13:57:37;98579.75;;;12.38;76.39
57847;BME280;43675;50.030;21.952;2022-09-12T14:00:14;98587.89;;;12.41;76.34
57847;BME280;43675;50.030;21.952;2022-09-12T14:02:40;98585.72;;;12.40;76.31
57847;BME280;43675;50.030;21.952;2022-09-12T14:05:18;98580.12;;;12.42;76.42
57847;BME280;43675;50.030;21.952;2022-09-12T14:10:27;98584.36;;;12.49;76.27
57847;BME280;43675;50.030;21.952;2022-09-12T14:12:53;98587.57;;;12.49;76.25
57847;BME280;43675;50.030;21.952;2022-09-12T14:15:22;98580.90;;;12.51;76.24
57847;BME280;43675;50.030;21.952;2022-09-12T14:17:51;98581.25;;;12.55;76.16
57847;BME280;43675;50.030;21.952;2022-09-12T14:20:19;98582.44;;;12.59;76.10
57847;BME280;43675;50.030;21.952;2022-09-12T14:22:46;98576.53;;;12.59;76.05
57847;BME280;43675;50.030;21.952;2022-09-12T14:25:17;98582.88;;;12.65;75.98
57847;BME280;43675;50.030;21.952;2022-09-12T14:27:46;98587.59;;;12.69;75.86
57847;BME280;43675;50.030;21.952;2022-09-12T14:30:25;98584.59;;;12.68;75.84
57847;BME280;43675;50.030;21.952;2022-09-12T14:35:46;98578.69;;;12.69;75.83
57847;BME280;43675;50.030;21.952;2022-09-12T14:38:18;98577.09;;;12.70;75.69
57847;BME280;43675;50.030;21.952;2022-09-12T14:40:47;98576.87;;;12.72;75.64
57847;BME280;43675;50.030;21.952;2022-09-12T14:43:28;98569.15;;;12.75;75.59
57847;BME280;43675;50.030;21.952;2022-09-12T14:45:57;98563.81;;;12.78;75.44
57847;BME280;43675;50.030;21.952;2022-09-12T14:48:23;98570.85;;;12.79;75.36
57847;BME280;43675;50.030;21.952;2022-09-12T14:50:51;98568.30;;;12.84;75.35
57847;BME280;43675;50.030;21.952;2022-09-12T14:53:36;98570.88;;;12.91;75.22
57847;BME280;43675;50.030;21.952;2022-09-12T14:56:11;98562.70;;;12.97;75.03
57847;BME280;43675;50.030;21.952;2022-09-12T14:58:50;98567.54;;;12.98;74.96
57847;BME280;43675;50.030;21.952;2022-09-12T15:01:21;98569.19;;;12.99;74.88
57847;BME280;43675;50.030;21.952;2022-09-12T15:03:50;98576.22;;;13.00;74.74
57847;BME280;43675;50.030;21.952;2022-09-12T15:06:29;98568.97;;;13.00;74.67
57847;BME280;43675;50.030;21.952;2022-09-12T15:09:07;98563.58;;;13.00;74.66
57847;BME280;43675;50.030;21.952;2022-09-12T15:11:33;98571.14;;;13.01;74.60
57847;BME280;43675;50.030;21.952;2022-09-12T15:14:14;98562.23;;;13.00;74.55
57847;BME280;43675;50.030;21.952;2022-09-12T15:16:37;98571.19;;;13.03;74.55